createdAt,value
2023-03-19T00:01:07.901Z,9.99
2023-03-19T00:03:43.736Z,9.15
2023-03-19T00:06:12.280Z,8.62
2023-03-19T00:08:40.401Z,8.22
2023-03-19T00:11:11.226Z,7.92
2023-03-19T00:13:40.078Z,7.66
2023-03-19T00:16:08.529Z,7.44
2023-03-19T00:18:36.524Z,8.12
2023-03-19T00:21:05.449Z,9.89
2023-03-19T00:23:34.091Z,10.60
2023-03-19T00:26:03.582Z,9.74
2023-03-19T00:28:31.691Z,8.96
2023-03-19T00:31:15.405Z,8.43
2023-03-19T00:33:44.035Z,8.03
2023-03-19T00:36:13.183Z,7.73
2023-03-19T00:38:41.313Z,7.49
2023-03-19T00:41:09.730Z,7.68
2023-03-19T00:43:37.788Z,9.31
2023-03-19T00:46:06.535Z,10.32
2023-03-19T00:48:34.638Z,9.61
2023-03-19T00:51:09.704Z,8.83
2023-03-19T00:53:44.869Z,8.27
2023-03-19T00:56:15.605Z,7.88
2023-03-19T00:58:43.655Z,7.59
2023-03-19T01:01:16.307Z,7.35
2023-03-19T01:03:45.591Z,7.68
2023-03-19T01:06:14.192Z,9.45
2023-03-19T01:08:42.332Z,10.47
2023-03-19T01:11:14.840Z,9.69
2023-03-19T01:13:43.404Z,8.89
2023-03-19T01:16:11.576Z,8.34
2023-03-19T01:18:39.938Z,7.96
2023-03-19T01:21:08.613Z,7.67
2023-03-19T01:23:36.735Z,7.42
2023-03-19T01:26:05.260Z,7.45
2023-03-19T01:28:33.549Z,9.02
2023-03-19T01:31:06.909Z,10.19
2023-03-19T01:33:35.208Z,9.52
2023-03-19T01:36:05.155Z,8.74
2023-03-19T01:38:33.158Z,8.19
2023-03-19T01:41:01.645Z,7.81
2023-03-19T01:43:32.818Z,7.51
2023-03-19T01:46:07.610Z,7.72
2023-03-19T01:48:50.525Z,9.49
2023-03-19T01:51:24.995Z,10.45
2023-03-19T01:53:59.447Z,9.55
2023-03-19T01:56:33.391Z,8.75
2023-03-19T01:59:11.967Z,8.19
2023-03-19T02:01:54.135Z,7.80
2023-03-19T02:04:23.147Z,7.49
2023-03-19T02:06:51.951Z,7.61
2023-03-19T02:09:20.543Z,9.23
2023-03-19T02:11:48.733Z,10.33
2023-03-19T02:14:16.996Z,9.61
2023-03-19T02:16:45.070Z,8.82
2023-03-19T02:19:18.004Z,8.27
2023-03-19T02:21:45.924Z,7.89
2023-03-19T02:24:33.041Z,7.60
2023-03-19T02:27:01.598Z,7.34
2023-03-19T02:29:29.732Z,7.57
2023-03-19T02:31:57.724Z,9.30
2023-03-19T02:34:25.688Z,10.35
2023-03-19T02:37:15.337Z,9.64
2023-03-19T02:40:04.850Z,8.77
2023-03-19T02:42:32.848Z,8.20
2023-03-19T02:45:01.035Z,7.85
2023-03-19T02:47:29.114Z,7.57
2023-03-19T02:49:57.279Z,7.35
2023-03-19T02:52:25.952Z,7.61
2023-03-19T02:54:53.869Z,9.38
2023-03-19T02:57:21.905Z,10.32
2023-03-19T02:59:49.922Z,9.53
2023-03-19T03:02:18.088Z,8.76
2023-03-19T03:04:46.824Z,8.23
2023-03-19T03:07:14.964Z,7.84
2023-03-19T03:09:42.900Z,7.54
2023-03-19T03:12:11.329Z,7.28
2023-03-19T03:14:40.786Z,7.46
2023-03-19T03:17:08.988Z,9.17
2023-03-19T03:19:36.992Z,10.20
2023-03-19T03:22:05.811Z,9.46
2023-03-19T03:24:33.965Z,8.67
2023-03-19T03:27:02.133Z,8.12
2023-03-19T03:29:30.207Z,7.74
2023-03-19T03:31:58.443Z,7.44
2023-03-19T03:34:26.735Z,7.63
2023-03-19T03:36:54.763Z,9.33
2023-03-19T03:39:23.263Z,10.35
2023-03-19T03:41:51.699Z,9.59
2023-03-19T03:44:19.829Z,8.78
2023-03-19T03:46:48.210Z,8.22
2023-03-19T03:49:16.304Z,7.84
2023-03-19T03:51:44.729Z,7.52
2023-03-19T03:54:12.885Z,7.25
2023-03-19T03:56:42.168Z,7.58
2023-03-19T03:59:10.244Z,9.36
2023-03-19T04:01:38.451Z,10.25
2023-03-19T04:04:06.855Z,9.42
2023-03-19T04:06:35.192Z,8.60
2023-03-19T04:09:03.500Z,8.04
2023-03-19T04:11:31.503Z,7.65
2023-03-19T04:13:59.909Z,7.34
2023-03-19T04:16:28.769Z,7.58
2023-03-19T04:18:56.957Z,9.31
2023-03-19T04:21:26.318Z,10.28
2023-03-19T04:23:54.450Z,9.47
2023-03-19T04:26:22.503Z,8.65
2023-03-19T04:28:50.851Z,8.08
2023-03-19T04:31:18.992Z,7.69
2023-03-19T04:33:46.986Z,7.39
2023-03-19T04:36:15.032Z,7.57
2023-03-19T04:38:43.410Z,9.28
2023-03-19T04:41:11.387Z,10.28
2023-03-19T04:43:39.531Z,9.50
2023-03-19T04:46:08.384Z,8.68
2023-03-19T04:48:37.846Z,8.10
2023-03-19T04:51:08.750Z,7.68
2023-03-19T04:53:38.062Z,7.40
2023-03-19T04:56:08.486Z,8.27
2023-03-19T04:58:36.617Z,9.99
2023-03-19T05:01:05.616Z,9.93
2023-03-19T05:03:33.894Z,9.01
2023-03-19T05:06:02.234Z,8.29
2023-03-19T05:08:30.408Z,7.81
2023-03-19T05:10:58.553Z,7.46
2023-03-19T05:13:26.757Z,7.71
2023-03-19T05:15:55.710Z,9.42
2023-03-19T05:18:23.915Z,10.34
2023-03-19T05:20:52.160Z,9.50
2023-03-19T05:23:20.352Z,8.68
2023-03-19T05:25:49.467Z,8.12
2023-03-19T05:28:18.952Z,7.72
2023-03-19T05:30:47.066Z,7.42
2023-03-19T05:33:15.160Z,7.72
2023-03-19T05:35:43.231Z,9.46
2023-03-19T05:38:11.969Z,10.42
2023-03-19T05:40:42.075Z,9.65
2023-03-19T05:43:11.228Z,8.84
2023-03-19T05:45:39.789Z,8.27
2023-03-19T05:48:09.124Z,7.89
2023-03-19T05:50:37.349Z,7.60
2023-03-19T05:53:05.393Z,7.78
2023-03-19T05:55:33.374Z,9.47
2023-03-19T05:58:01.629Z,10.49
2023-03-19T06:00:29.653Z,9.77
2023-03-19T06:02:57.692Z,9.02
2023-03-19T06:05:26.286Z,8.50
2023-03-19T06:07:54.257Z,8.15
2023-03-19T06:10:22.315Z,7.91
2023-03-19T06:12:50.491Z,7.71
2023-03-19T06:15:18.472Z,8.05
2023-03-19T06:17:46.764Z,9.84
2023-03-19T06:20:14.881Z,10.95
2023-03-19T06:22:43.761Z,10.28
2023-03-19T06:25:12.130Z,9.54
2023-03-19T06:27:40.346Z,9.06
2023-03-19T06:30:10.705Z,8.75
2023-03-19T06:32:38.843Z,8.52
2023-03-19T06:35:07.209Z,8.34
2023-03-19T06:37:38.105Z,8.22
2023-03-19T06:40:06.861Z,8.65
2023-03-19T06:42:35.064Z,10.34
2023-03-19T06:45:03.975Z,11.38
2023-03-19T06:47:34.472Z,10.77
2023-03-19T06:50:05.143Z,10.11
2023-03-19T06:52:33.514Z,9.70
2023-03-19T06:55:01.994Z,9.45
2023-03-19T06:57:29.966Z,9.28
2023-03-19T06:59:58.463Z,9.15
2023-03-19T07:02:27.522Z,9.06
2023-03-19T07:04:56.009Z,9.00
2023-03-19T07:07:24.270Z,8.96
2023-03-19T07:09:52.602Z,8.92
2023-03-19T07:12:21.846Z,8.89
2023-03-19T07:14:51.099Z,8.88
2023-03-19T07:17:19.568Z,9.27
2023-03-19T07:19:48.403Z,11.01
2023-03-19T07:22:17.399Z,12.11
2023-03-19T07:24:45.767Z,11.59
2023-03-19T07:27:15.207Z,11.03
2023-03-19T07:29:43.487Z,10.69
2023-03-19T07:32:12.585Z,10.48
2023-03-19T07:34:41.457Z,10.36
2023-03-19T07:37:11.078Z,10.29
2023-03-19T07:39:39.743Z,10.24
2023-03-19T07:42:09.306Z,10.21
2023-03-19T07:44:38.371Z,10.21
2023-03-19T07:47:19.009Z,10.23
2023-03-19T07:49:58.196Z,10.27
2023-03-19T07:52:28.582Z,10.32
2023-03-19T07:54:58.056Z,10.37
2023-03-19T07:57:28.446Z,10.43
2023-03-19T07:59:57.605Z,10.50
2023-03-19T08:02:29.155Z,10.60
2023-03-19T08:05:04.648Z,10.70
2023-03-19T08:07:37.112Z,10.82
2023-03-19T08:10:12.545Z,10.95
2023-03-19T08:12:42.770Z,11.11
2023-03-19T08:15:11.911Z,11.26
2023-03-19T08:18:56.127Z,11.53
2023-03-19T08:21:24.822Z,11.72
2023-03-19T08:23:53.209Z,11.89
2023-03-19T08:26:21.796Z,12.05
2023-03-19T08:28:50.051Z,12.22
2023-03-19T08:31:18.086Z,12.37
2023-03-19T08:33:46.377Z,12.52
2023-03-19T08:36:14.716Z,12.64
2023-03-19T08:38:43.855Z,12.78
2023-03-19T08:41:12.506Z,12.91
2023-03-19T08:43:41.068Z,13.03
2023-03-19T08:46:09.935Z,13.13
2023-03-19T08:48:44.843Z,13.23
2023-03-19T09:04:57.218Z,13.83
2023-03-19T09:07:25.348Z,13.96
2023-03-19T09:09:53.453Z,14.10
2023-03-19T09:12:21.388Z,14.24
2023-03-19T09:14:49.765Z,14.36
2023-03-19T09:17:18.463Z,14.50
2023-03-19T09:19:49.755Z,14.66
2023-03-19T09:22:18.143Z,14.82
2023-03-19T09:24:46.295Z,15.02
2023-03-19T09:27:14.493Z,15.21
2023-03-19T09:29:42.729Z,15.39
2023-03-19T09:32:10.942Z,15.56
2023-03-19T09:34:39.082Z,15.70
2023-03-19T09:37:07.428Z,15.86
2023-03-19T09:39:35.614Z,16.00
2023-03-19T09:42:19.134Z,16.18
2023-03-19T09:44:47.607Z,16.39
2023-03-19T09:47:34.439Z,16.57
2023-03-19T09:50:24.283Z,16.77
2023-03-19T09:53:24.821Z,16.96
2023-03-19T09:55:54.239Z,17.19
2023-03-19T09:58:34.455Z,17.36
2023-03-19T10:01:04.458Z,17.56
2023-03-19T10:04:09.692Z,17.74
2023-03-19T10:06:41.133Z,17.92
2023-03-19T10:09:39.808Z,18.05
2023-03-19T10:13:10.458Z,18.19
2023-03-19T10:15:39.683Z,18.32
2023-03-19T10:18:22.654Z,18.41
2023-03-19T10:21:10.416Z,18.48
2023-03-19T10:23:48.436Z,18.54
2023-03-19T10:26:20.793Z,18.59
2023-03-19T10:29:10.213Z,18.64
2023-03-19T10:31:45.537Z,18.71
2023-03-19T10:34:29.734Z,18.76
2023-03-19T10:37:37.749Z,18.81
2023-03-19T10:40:21.938Z,18.83
2023-03-19T10:43:17.211Z,18.83
2023-03-19T10:45:46.676Z,18.81
2023-03-19T10:48:18.348Z,18.78
2023-03-19T10:51:03.745Z,18.75
2023-03-19T10:53:39.975Z,18.70
2023-03-19T10:56:23.383Z,18.65
2023-03-19T10:59:03.441Z,18.59
2023-03-19T11:01:39.292Z,18.51
2023-03-19T11:04:26.052Z,18.41
2023-03-19T11:06:57.382Z,18.30
2023-03-19T11:09:37.156Z,18.20
2023-03-19T11:12:20.979Z,18.12
2023-03-19T11:14:53.817Z,18.03
2023-03-19T11:17:36.474Z,17.95
2023-03-19T11:20:11.636Z,17.83
2023-03-19T11:22:39.997Z,17.73
2023-03-19T11:25:42.263Z,17.64
2023-03-19T11:28:14.976Z,17.52
2023-03-19T11:31:17.787Z,17.44
2023-03-19T11:33:55.316Z,17.36
2023-03-19T11:37:00.968Z,17.29
2023-03-19T11:39:57.653Z,17.22
2023-03-19T11:42:41.386Z,17.16
2023-03-19T11:45:57.016Z,17.10
2023-03-19T11:49:25.708Z,17.04
2023-03-19T11:52:19.224Z,16.97
2023-03-19T11:54:57.392Z,16.91
2023-03-19T11:58:05.902Z,16.85
2023-03-19T12:00:56.557Z,16.79
2023-03-19T12:03:43.063Z,16.72
2023-03-19T12:07:03.507Z,16.65
2023-03-19T12:09:34.447Z,16.57
2023-03-19T12:12:27.309Z,16.51
2023-03-19T12:22:20.973Z,16.33
2023-03-19T12:25:36.668Z,16.27
2023-03-19T12:28:37.393Z,16.22
2023-03-19T12:32:05.916Z,16.21
2023-03-19T12:34:45.643Z,16.20
2023-03-19T12:37:18.869Z,16.20
2023-03-19T12:40:17.519Z,16.21
2023-03-19T12:42:47.981Z,16.23
2023-03-19T12:45:38.982Z,16.25
2023-03-19T12:48:12.523Z,16.28
2023-03-19T12:50:44.836Z,16.30
2023-03-19T12:53:51.828Z,16.33
2023-03-19T12:56:48.833Z,16.34
2023-03-19T12:59:53.040Z,16.35
2023-03-19T13:02:33.633Z,16.35
2023-03-19T13:05:40.052Z,16.35
2023-03-19T13:08:34.264Z,16.36
2023-03-19T13:11:11.730Z,16.36
2023-03-19T13:14:23.021Z,16.38
2023-03-19T13:17:22.532Z,16.39
2023-03-19T13:19:54.362Z,16.41
2023-03-19T13:22:27.588Z,16.40
2023-03-19T13:24:57.324Z,16.41
2023-03-19T13:27:36.460Z,16.42
2023-03-19T13:30:10.662Z,16.41
2023-03-19T13:32:48.396Z,16.40
2023-03-19T13:35:41.128Z,16.37
2023-03-19T13:38:40.821Z,16.36
2023-03-19T13:41:34.887Z,16.32
2023-03-19T13:44:27.390Z,16.29
2023-03-19T13:46:55.669Z,16.26
2023-03-19T13:49:35.906Z,16.23
2023-03-19T13:52:10.137Z,16.18
2023-03-19T13:54:41.291Z,16.15
2023-03-19T13:57:17.155Z,16.12
2023-03-19T13:59:49.994Z,16.09
2023-03-19T14:02:29.178Z,16.04
2023-03-19T14:05:16.213Z,16.00
2023-03-19T14:07:53.030Z,15.96
2023-03-19T14:10:31.751Z,15.93
2023-03-19T14:13:20.047Z,15.90
2023-03-19T14:15:58.761Z,15.89
2023-03-19T14:18:29.949Z,15.86
2023-03-19T14:21:21.342Z,15.84
2023-03-19T14:23:55.592Z,15.83
2023-03-19T14:26:29.476Z,15.81
2023-03-19T14:29:07.447Z,15.80
2023-03-19T14:31:54.168Z,15.78
2023-03-19T14:34:32.743Z,15.76
2023-03-19T14:37:15.751Z,15.75
2023-03-19T14:39:46.074Z,15.73
2023-03-19T14:42:32.671Z,15.71
2023-03-19T14:45:25.986Z,15.69
2023-03-19T14:48:09.607Z,15.67
2023-03-19T14:51:06.733Z,15.66
2023-03-19T14:54:34.670Z,15.64
2023-03-19T14:57:27.486Z,15.62
2023-03-19T14:59:57.221Z,15.59
2023-03-19T15:02:39.797Z,15.57
2023-03-19T15:05:15.535Z,15.55
2023-03-19T15:07:52.612Z,15.54
2023-03-19T15:10:24.841Z,15.53
2023-03-19T15:13:32.999Z,15.52
2023-03-19T15:16:21.317Z,15.50
2023-03-19T15:18:51.171Z,15.50
2023-03-19T15:21:20.594Z,15.50
2023-03-19T15:23:49.299Z,15.48
2023-03-19T15:26:32.566Z,15.47
2023-03-19T15:29:00.964Z,15.46
2023-03-19T15:31:52.678Z,15.44
2023-03-19T15:34:31.965Z,15.41
2023-03-19T15:37:13.883Z,15.40
2023-03-19T15:39:51.948Z,15.36
2023-03-19T15:42:22.505Z,15.34
2023-03-19T15:45:12.656Z,15.32
2023-03-19T15:47:47.632Z,15.29
2023-03-19T15:50:26.441Z,15.27
2023-03-19T15:53:22.065Z,15.24
2023-03-19T15:55:53.169Z,15.22
2023-03-19T15:58:37.195Z,15.20
2023-03-19T16:01:09.793Z,15.17
2023-03-19T16:03:43.114Z,15.15
2023-03-19T16:06:31.803Z,15.12
2023-03-19T16:09:31.043Z,15.09
2023-03-19T16:12:01.766Z,15.06
2023-03-19T16:14:30.297Z,15.03
2023-03-19T16:17:18.040Z,15.00
2023-03-19T16:20:01.872Z,14.97
2023-03-19T16:22:32.644Z,14.93
2023-03-19T16:25:03.902Z,14.89
2023-03-19T16:27:40.277Z,14.86
2023-03-19T16:30:27.452Z,14.82
2023-03-19T16:33:06.940Z,14.78
2023-03-19T16:35:36.820Z,14.73
2023-03-19T16:38:25.089Z,14.68
2023-03-19T16:41:35.654Z,14.62
2023-03-19T16:44:31.494Z,14.56
2023-03-19T16:47:00.246Z,14.49
2023-03-19T16:49:28.286Z,14.43
2023-03-19T16:51:57.008Z,14.36
2023-03-19T16:54:26.413Z,14.29
2023-03-19T16:56:58.329Z,14.22
2023-03-19T16:59:30.467Z,14.13
2023-03-19T17:01:59.834Z,14.05
2023-03-19T17:04:28.873Z,13.96
2023-03-19T17:06:57.036Z,13.89
2023-03-19T17:09:26.614Z,13.80
2023-03-19T17:11:54.983Z,13.72
2023-03-19T17:14:23.370Z,13.63
2023-03-19T17:16:55.755Z,13.54
2023-03-19T17:19:32.229Z,13.46
2023-03-19T17:22:00.547Z,13.36
2023-03-19T17:24:35.419Z,13.27
2023-03-19T17:27:05.062Z,13.18
2023-03-19T17:29:33.893Z,13.08
2023-03-19T17:32:02.665Z,13.00
2023-03-19T17:34:38.830Z,12.92
2023-03-19T17:37:14.813Z,12.83
2023-03-19T17:39:46.307Z,12.75
2023-03-19T17:42:24.142Z,12.67
2023-03-19T17:44:52.705Z,12.58
2023-03-19T17:47:24.100Z,12.49
2023-03-19T17:49:53.943Z,12.40
2023-03-19T17:52:23.576Z,12.30
2023-03-19T17:55:02.703Z,12.19
2023-03-19T17:57:30.693Z,12.47
2023-03-19T17:59:58.958Z,13.90
2023-03-19T18:02:33.971Z,14.82
2023-03-19T18:05:04.893Z,14.21
2023-03-19T18:07:33.037Z,13.57
2023-03-19T18:10:01.522Z,13.15
2023-03-19T18:12:29.691Z,12.84
2023-03-19T18:14:59.023Z,12.61
2023-03-19T18:17:27.512Z,12.41
2023-03-19T18:19:55.804Z,12.24
2023-03-19T18:22:23.945Z,12.06
2023-03-19T18:24:52.564Z,11.91
2023-03-19T18:27:24.201Z,11.77
2023-03-19T18:29:52.273Z,11.63
2023-03-19T18:32:31.894Z,11.50
2023-03-19T18:35:00.310Z,11.38
2023-03-19T18:37:29.255Z,11.26
2023-03-19T18:39:57.357Z,11.16
2023-03-19T18:42:25.366Z,11.43
2023-03-19T18:44:53.387Z,12.96
2023-03-19T18:47:21.321Z,14.04
2023-03-19T18:49:50.101Z,13.50
2023-03-19T18:52:19.574Z,12.79
2023-03-19T18:54:47.942Z,12.31
2023-03-19T18:57:16.739Z,11.98
2023-03-19T18:59:44.836Z,11.72
2023-03-19T19:02:26.944Z,11.51
2023-03-19T19:04:55.204Z,11.81
2023-03-19T19:07:23.145Z,13.27
2023-03-19T19:09:51.257Z,14.07
2023-03-19T19:12:19.754Z,13.38
2023-03-19T19:14:48.186Z,12.67
2023-03-19T19:17:19.818Z,12.18
2023-03-19T19:19:47.760Z,11.81
2023-03-19T19:22:17.937Z,11.53
2023-03-19T19:24:46.307Z,11.64
2023-03-19T19:27:20.738Z,13.04
2023-03-19T19:29:49.291Z,13.89
2023-03-19T19:32:27.175Z,13.18
2023-03-19T19:34:55.814Z,12.43
2023-03-19T19:37:23.887Z,11.92
2023-03-19T19:39:52.150Z,11.56
2023-03-19T19:42:21.683Z,11.26
2023-03-19T19:44:53.874Z,11.49
2023-03-19T19:47:21.861Z,12.88
2023-03-19T19:49:49.789Z,13.76
2023-03-19T19:52:19.553Z,13.09
2023-03-19T19:54:47.745Z,12.31
2023-03-19T19:57:26.680Z,11.77
2023-03-19T19:59:55.653Z,11.36
2023-03-19T20:02:29.395Z,11.51
2023-03-19T20:04:58.676Z,12.99
2023-03-19T20:07:27.337Z,13.78
2023-03-19T20:09:55.746Z,13.02
2023-03-19T20:12:31.971Z,12.24
2023-03-19T20:15:00.516Z,11.68
2023-03-19T20:17:28.531Z,11.29
2023-03-19T20:19:56.458Z,11.41
2023-03-19T20:22:24.436Z,12.81
2023-03-19T20:24:52.442Z,13.61
2023-03-19T20:27:32.457Z,12.90
2023-03-19T20:30:00.377Z,12.07
2023-03-19T20:32:35.635Z,11.54
2023-03-19T20:35:07.330Z,11.58
2023-03-19T20:37:35.438Z,12.95
2023-03-19T20:40:03.706Z,13.78
2023-03-19T20:42:35.279Z,13.05
2023-03-19T20:45:03.688Z,12.27
2023-03-19T20:47:33.258Z,11.73
2023-03-19T20:50:02.065Z,11.75
2023-03-19T20:52:30.082Z,13.14
2023-03-19T20:54:58.808Z,13.99
2023-03-19T20:57:31.105Z,13.23
2023-03-19T21:00:03.415Z,12.43
2023-03-19T21:02:31.438Z,11.86
2023-03-19T21:05:00.110Z,11.47
2023-03-19T21:07:33.778Z,11.71
2023-03-19T21:10:32.316Z,13.25
2023-03-19T21:13:02.034Z,13.96
2023-03-19T21:15:30.135Z,13.05
2023-03-19T21:17:58.913Z,12.29
2023-03-19T21:20:32.140Z,11.77
2023-03-19T21:23:09.241Z,11.74
2023-03-19T21:25:38.297Z,13.21
2023-03-19T21:28:13.755Z,13.97
2023-03-19T21:30:44.483Z,13.12
2023-03-19T21:33:27.070Z,12.31
2023-03-19T21:35:56.589Z,11.71
2023-03-19T21:38:24.739Z,11.33
2023-03-19T21:40:57.975Z,11.98
2023-03-19T21:43:40.927Z,13.52
2023-03-19T21:46:23.809Z,13.86
2023-03-19T21:48:57.291Z,12.84
2023-03-19T21:51:27.283Z,12.09
2023-03-19T21:53:55.361Z,11.58
2023-03-19T21:56:38.985Z,11.49
2023-03-19T21:59:17.119Z,12.93
2023-03-19T22:01:45.386Z,13.75
2023-03-19T22:04:13.591Z,12.91
2023-03-19T22:06:43.250Z,12.10
2023-03-19T22:09:11.462Z,11.53
2023-03-19T22:11:40.887Z,11.48
2023-03-19T22:14:19.803Z,12.88
2023-03-19T22:16:55.427Z,13.58
2023-03-19T22:19:23.948Z,12.70
2023-03-19T22:21:52.100Z,11.92
2023-03-19T22:24:19.978Z,11.38
2023-03-19T22:26:57.771Z,11.33
2023-03-19T22:29:25.905Z,12.77
2023-03-19T22:31:56.052Z,13.63
2023-03-19T22:34:27.818Z,12.82
2023-03-19T22:36:56.131Z,11.96
2023-03-19T22:39:24.093Z,11.37
2023-03-19T22:41:52.154Z,10.94
2023-03-19T22:44:27.517Z,11.24
2023-03-19T22:46:57.828Z,12.80
2023-03-19T22:49:25.911Z,13.48
2023-03-19T22:51:54.477Z,12.57
2023-03-19T22:54:22.708Z,11.73
2023-03-19T22:56:50.718Z,11.13
2023-03-19T22:59:18.765Z,10.76
2023-03-19T23:01:47.851Z,11.69
2023-03-19T23:04:25.467Z,13.16
2023-03-19T23:06:55.468Z,13.05
2023-03-19T23:09:27.136Z,12.07
2023-03-19T23:11:56.465Z,11.33
2023-03-19T23:14:31.803Z,10.80
2023-03-19T23:17:12.046Z,11.03
2023-03-19T23:19:40.027Z,12.65
2023-03-19T23:22:15.664Z,13.34
2023-03-19T23:24:44.917Z,12.39
2023-03-19T23:27:26.381Z,11.52
2023-03-19T23:29:54.741Z,10.87
2023-03-19T23:32:22.916Z,10.90
2023-03-19T23:34:59.519Z,12.29
2023-03-19T23:37:29.502Z,13.03
2023-03-19T23:39:58.028Z,12.16
2023-03-19T23:42:29.631Z,11.34
2023-03-19T23:44:59.779Z,10.75
2023-03-19T23:47:29.154Z,10.86
2023-03-19T23:49:57.704Z,12.30
2023-03-19T23:52:25.930Z,13.11
2023-03-19T23:54:53.966Z,12.25
2023-03-19T23:57:22.689Z,11.39
2023-03-19T23:59:52.229Z,10.81
